createdAt,value
2018-01-20T00:01:32.514Z,11.43
2018-01-20T00:04:00.986Z,9.00
2018-01-20T00:06:34.704Z,9.63
2018-01-20T00:09:03.391Z,11.90
2018-01-20T00:11:59.227Z,12.02
2018-01-20T00:14:27.788Z,11.25
2018-01-20T00:16:57.449Z,11.07
2018-01-20T00:19:25.789Z,11.50
2018-01-20T00:22:02.415Z,12.05
2018-01-20T00:24:43.644Z,11.80
2018-01-20T00:27:14.076Z,11.80
2018-01-20T00:29:43.232Z,8.98
2018-01-20T00:32:21.108Z,11.23
2018-01-20T00:34:52.204Z,15.98
2018-01-20T00:37:27.936Z,13.32
2018-01-20T00:40:11.540Z,11.02
2018-01-20T00:42:52.461Z,12.63
2018-01-20T00:45:23.842Z,12.52
2018-01-20T00:47:55.163Z,10.52
2018-01-20T00:50:25.567Z,11.52
2018-01-20T00:52:54.040Z,15.05
2018-01-20T00:55:22.804Z,12.00
2018-01-20T00:57:50.880Z,11.30
2018-01-20T01:02:58.466Z,13.65
2018-01-20T01:05:31.185Z,15.52
2018-01-20T01:07:59.740Z,14.20
2018-01-20T01:10:31.844Z,9.75
2018-01-20T01:13:03.740Z,8.88
2018-01-20T01:15:33.826Z,10.32
2018-01-20T01:18:25.028Z,9.10
2018-01-20T01:20:53.689Z,7.50
2018-01-20T01:23:22.682Z,8.45
2018-01-20T01:25:53.080Z,8.00
2018-01-20T01:28:22.655Z,8.15
2018-01-20T01:30:53.013Z,12.18
2018-01-20T01:33:21.374Z,10.68
2018-01-20T01:35:51.126Z,9.77
2018-01-20T01:38:19.192Z,10.50
2018-01-20T01:40:47.164Z,8.13
2018-01-20T01:43:15.479Z,10.48
2018-01-20T01:45:43.643Z,12.45
2018-01-20T01:48:11.924Z,10.45
2018-01-20T01:50:39.870Z,10.82
2018-01-20T01:53:07.806Z,10.98
2018-01-20T01:55:35.780Z,9.77
2018-01-20T01:58:05.026Z,7.40
2018-01-20T02:00:33.573Z,9.02
2018-01-20T02:03:01.598Z,9.18
2018-01-20T02:05:29.504Z,9.82
2018-01-20T02:07:58.455Z,12.10
2018-01-20T02:10:29.012Z,8.45
2018-01-20T02:13:02.949Z,9.07
2018-01-20T02:15:31.894Z,11.05
2018-01-20T02:17:59.984Z,9.25
2018-01-20T02:23:23.912Z,11.10
2018-01-20T02:25:52.214Z,11.25
2018-01-20T02:28:20.611Z,7.60
2018-01-20T02:30:48.725Z,10.55
2018-01-20T02:33:17.678Z,14.00
2018-01-20T02:35:47.160Z,9.10
2018-01-20T02:38:15.092Z,13.27
2018-01-20T02:40:43.853Z,13.93
2018-01-20T02:43:12.036Z,9.23
2018-01-20T02:45:40.009Z,14.05
2018-01-20T02:48:08.299Z,11.40
2018-01-20T02:50:36.420Z,9.75
2018-01-20T02:53:04.592Z,8.13
2018-01-20T02:55:33.634Z,9.57
2018-01-20T02:58:01.916Z,8.38
2018-01-20T03:00:32.046Z,9.15
2018-01-20T03:03:00.000Z,7.18
2018-01-20T03:05:28.105Z,9.10
2018-01-20T03:07:56.360Z,14.27
2018-01-20T03:10:26.653Z,10.05
2018-01-20T03:12:55.013Z,8.60
2018-01-20T03:15:23.129Z,12.18
2018-01-20T03:17:51.421Z,11.20
2018-01-20T03:20:21.051Z,10.57
2018-01-20T03:22:49.965Z,10.40
2018-01-20T03:25:18.831Z,12.80
2018-01-20T03:27:46.788Z,12.35
2018-01-20T03:30:15.167Z,11.12
2018-01-20T03:32:43.083Z,11.27
2018-01-20T03:35:11.058Z,9.80
2018-01-20T03:37:39.483Z,14.75
2018-01-20T03:40:08.246Z,11.70
2018-01-20T03:42:36.168Z,12.32
2018-01-20T03:45:05.819Z,13.68
2018-01-20T03:47:34.122Z,11.27
2018-01-20T03:50:02.001Z,12.45
2018-01-20T03:52:30.747Z,10.98
2018-01-20T03:54:59.242Z,10.65
2018-01-20T03:57:27.428Z,10.57
2018-01-20T03:59:55.641Z,11.30
2018-01-20T04:02:24.346Z,12.13
2018-01-20T04:07:53.886Z,12.25
2018-01-20T04:10:24.824Z,10.05
2018-01-20T04:12:52.887Z,11.25
2018-01-20T04:15:20.986Z,12.77
2018-01-20T04:17:49.035Z,10.80
2018-01-20T04:20:17.172Z,11.32
2018-01-20T04:22:45.484Z,9.40
2018-01-20T04:25:14.170Z,6.62
2018-01-20T04:27:43.205Z,6.85
2018-01-20T04:30:11.671Z,8.75
2018-01-20T04:32:39.752Z,9.68
2018-01-20T04:35:10.059Z,6.95
2018-01-20T04:37:38.134Z,10.15
2018-01-20T04:40:06.259Z,8.23
2018-01-20T04:42:35.354Z,8.93
2018-01-20T04:45:06.448Z,7.47
2018-01-20T04:47:34.802Z,6.93
2018-01-20T04:50:03.482Z,8.80
2018-01-20T04:52:31.552Z,7.78
2018-01-20T04:55:00.241Z,11.75
2018-01-20T04:57:29.181Z,6.50
2018-01-20T04:59:57.811Z,4.40
2018-01-20T05:02:25.755Z,7.18
2018-01-20T05:04:54.227Z,6.85
2018-01-20T05:07:22.533Z,7.57
2018-01-20T05:09:50.745Z,7.03
2018-01-20T05:12:21.886Z,5.00
2018-01-20T05:14:56.477Z,7.85
2018-01-20T05:20:19.364Z,6.10
2018-01-20T05:22:56.088Z,6.60
2018-01-20T05:25:24.324Z,8.80
2018-01-20T05:27:54.369Z,8.95
2018-01-20T05:30:22.732Z,8.55
2018-01-20T05:32:50.778Z,6.00
2018-01-20T05:35:19.789Z,5.65
2018-01-20T05:37:48.537Z,6.30
2018-01-20T05:40:17.130Z,4.55
2018-01-20T05:42:45.397Z,7.37
2018-01-20T05:45:13.392Z,7.85
2018-01-20T05:47:41.365Z,6.93
2018-01-20T05:50:09.360Z,6.35
2018-01-20T05:52:37.305Z,6.10
2018-01-20T05:55:05.581Z,7.80
2018-01-20T05:57:34.208Z,5.73
2018-01-20T06:00:10.899Z,5.68
2018-01-20T06:02:38.805Z,6.65
2018-01-20T06:05:06.999Z,5.75
2018-01-20T06:07:35.892Z,5.13
2018-01-20T06:10:04.932Z,6.37
2018-01-20T06:12:33.133Z,6.43
2018-01-20T06:15:01.607Z,6.60
2018-01-20T06:17:30.014Z,7.00
2018-01-20T06:19:59.284Z,7.55
2018-01-20T06:22:27.384Z,8.73
2018-01-20T06:24:56.679Z,6.53
2018-01-20T06:27:24.916Z,5.68
2018-01-20T06:29:53.212Z,8.02
2018-01-20T06:32:21.180Z,8.63
2018-01-20T06:34:49.184Z,6.50
2018-01-20T06:37:17.317Z,9.10
2018-01-20T06:39:45.612Z,7.25
2018-01-20T06:42:13.751Z,7.65
2018-01-20T06:44:41.664Z,6.85
2018-01-20T06:47:11.169Z,6.47
2018-01-20T06:49:39.141Z,8.48
2018-01-20T06:52:07.446Z,5.23
2018-01-20T06:54:35.688Z,8.50
2018-01-20T06:57:03.673Z,7.75
2018-01-20T06:59:33.000Z,6.28
2018-01-20T07:02:00.898Z,6.18
2018-01-20T07:04:29.609Z,5.80
2018-01-20T07:06:58.292Z,6.65
2018-01-20T07:09:26.285Z,6.80
2018-01-20T07:11:58.116Z,8.30
2018-01-20T07:14:26.322Z,5.37
2018-01-20T07:16:54.460Z,5.03
2018-01-20T07:19:24.009Z,5.40
2018-01-20T07:21:52.107Z,7.25
2018-01-20T07:24:20.245Z,4.93
2018-01-20T07:26:48.379Z,4.97
2018-01-20T07:29:17.541Z,5.20
2018-01-20T07:31:45.715Z,6.35
2018-01-20T07:34:13.713Z,6.00
2018-01-20T07:36:42.562Z,5.32
2018-01-20T07:39:11.018Z,4.60
2018-01-20T07:41:41.862Z,6.27
2018-01-20T07:44:09.912Z,5.70
2018-01-20T07:46:39.140Z,4.80
2018-01-20T07:49:11.791Z,5.70
2018-01-20T07:51:39.827Z,4.37
2018-01-20T07:54:14.042Z,6.60
2018-01-20T07:56:42.789Z,10.83
2018-01-20T07:59:11.436Z,7.07
2018-01-20T08:01:41.426Z,3.50
2018-01-20T08:04:09.986Z,5.10
2018-01-20T08:06:41.378Z,6.03
2018-01-20T08:09:10.795Z,7.60
2018-01-20T08:11:39.288Z,4.45
2018-01-20T08:14:07.342Z,3.63
2018-01-20T08:16:36.251Z,8.17
2018-01-20T08:19:04.336Z,4.30
2018-01-20T08:21:32.429Z,4.82
2018-01-20T08:24:01.694Z,4.97
2018-01-20T08:26:30.392Z,4.33
2018-01-20T08:28:58.618Z,5.12
2018-01-20T08:31:44.328Z,5.00
2018-01-20T08:34:12.245Z,4.07
2018-01-20T08:36:42.444Z,3.58
2018-01-20T08:39:10.905Z,3.58
2018-01-20T08:41:42.042Z,13.40
2018-01-20T08:44:10.918Z,3.75
2018-01-20T08:46:39.086Z,4.47
2018-01-20T08:49:07.184Z,8.67
2018-01-20T08:51:36.081Z,4.23
2018-01-20T08:54:05.783Z,4.05
2018-01-20T08:56:34.113Z,3.25
2018-01-20T08:59:02.227Z,5.03
2018-01-20T09:01:31.353Z,4.15
2018-01-20T09:04:02.348Z,3.60
2018-01-20T09:06:30.829Z,5.07
2018-01-20T09:08:59.057Z,3.42
2018-01-20T09:11:32.291Z,4.32
2018-01-20T09:14:04.478Z,3.47
2018-01-20T09:16:32.572Z,2.27
2018-01-20T09:19:03.801Z,2.60
2018-01-20T09:21:34.030Z,3.53
2018-01-20T09:24:03.222Z,3.00
2018-01-20T09:26:31.489Z,4.00
2018-01-20T09:29:00.128Z,3.70
2018-01-20T09:31:28.301Z,4.40
2018-01-20T09:33:56.530Z,4.97
2018-01-20T09:36:38.908Z,2.90
2018-01-20T09:39:07.033Z,5.18
2018-01-20T09:44:11.929Z,5.43
2018-01-20T09:46:41.581Z,3.80
2018-01-20T09:49:13.081Z,3.23
2018-01-20T09:51:41.887Z,5.70
2018-01-20T09:54:10.644Z,4.60
2018-01-20T09:56:44.678Z,3.33
2018-01-20T09:59:13.192Z,6.13
2018-01-20T10:04:20.507Z,5.23
2018-01-20T10:07:11.182Z,5.97
2018-01-20T10:09:41.982Z,3.80
2018-01-20T10:12:11.284Z,4.53
2018-01-20T10:14:40.108Z,5.07
2018-01-20T10:17:08.605Z,5.57
2018-01-20T10:19:37.519Z,8.03
2018-01-20T10:22:05.829Z,6.73
2018-01-20T10:24:34.120Z,7.50
2018-01-20T10:27:57.579Z,4.77
2018-01-20T10:30:28.348Z,6.53
2018-01-20T10:33:00.257Z,6.53
2018-01-20T10:35:28.431Z,5.83
2018-01-20T10:38:06.315Z,4.70
2018-01-20T10:40:37.670Z,4.97
2018-01-20T10:43:06.808Z,7.47
2018-01-20T10:45:36.370Z,3.87
2018-01-20T10:48:04.685Z,5.10
2018-01-20T10:50:33.306Z,6.67
2018-01-20T10:53:06.270Z,5.40
2018-01-20T10:55:35.721Z,6.73
2018-01-20T10:58:04.537Z,5.47
2018-01-20T11:00:32.835Z,4.37
2018-01-20T11:03:02.358Z,8.23
2018-01-20T11:05:31.743Z,4.03
2018-01-20T11:08:00.333Z,4.27
2018-01-20T11:10:35.595Z,5.93
2018-01-20T11:13:04.810Z,6.07
2018-01-20T11:15:38.226Z,5.73
2018-01-20T11:18:06.636Z,4.70
2018-01-20T11:20:35.126Z,8.23
2018-01-20T11:23:03.853Z,5.57
2018-01-20T11:25:31.870Z,3.90
2018-01-20T11:28:02.681Z,7.87
2018-01-20T11:30:31.910Z,3.43
2018-01-20T11:33:00.770Z,6.27
2018-01-20T11:35:32.531Z,3.80
2018-01-20T11:38:00.782Z,4.87
2018-01-20T11:40:48.625Z,6.37
2018-01-20T11:43:17.105Z,5.30
2018-01-20T11:45:45.491Z,4.70
2018-01-20T11:48:13.459Z,3.50
2018-01-20T11:50:42.591Z,6.70
2018-01-20T11:54:08.718Z,5.10
2018-01-20T11:56:38.725Z,5.93
2018-01-20T11:59:09.156Z,4.83
2018-01-20T12:01:37.712Z,5.03
2018-01-20T12:04:08.164Z,10.37
2018-01-20T12:06:37.357Z,7.10
2018-01-20T12:09:08.707Z,4.77
2018-01-20T12:11:36.832Z,5.63
2018-01-20T12:14:06.497Z,6.17
2018-01-20T12:16:34.899Z,6.40
2018-01-20T12:19:03.525Z,7.30
2018-01-20T12:21:32.569Z,5.57
2018-01-20T12:24:01.179Z,11.20
2018-01-20T12:26:30.460Z,6.57
2018-01-20T12:28:59.494Z,5.67
2018-01-20T12:31:40.368Z,7.77
2018-01-20T12:34:10.409Z,4.97
2018-01-20T12:36:45.773Z,7.60
2018-01-20T12:39:15.212Z,7.10
2018-01-20T12:44:46.748Z,5.13
2018-01-20T12:47:15.888Z,4.57
2018-01-20T12:49:50.002Z,6.40
2018-01-20T12:52:18.864Z,5.23
2018-01-20T12:54:47.048Z,7.90
2018-01-20T12:57:26.214Z,5.83
2018-01-20T12:59:54.465Z,6.67
2018-01-20T13:02:25.726Z,9.03
2018-01-20T13:04:54.332Z,8.07
2018-01-20T13:07:23.672Z,5.43
2018-01-20T13:09:56.276Z,9.63
2018-01-20T13:12:37.709Z,8.27
2018-01-20T13:15:10.571Z,6.67
2018-01-20T13:17:40.875Z,6.43
2018-01-20T13:20:14.465Z,7.87
2018-01-20T13:22:42.813Z,6.50
2018-01-20T13:25:12.396Z,7.23
2018-01-20T13:40:38.069Z,8.50
2018-01-20T13:43:06.641Z,8.10
2018-01-20T13:45:36.428Z,10.13
2018-01-20T13:48:19.206Z,8.57
2018-01-20T13:50:49.829Z,8.27
2018-01-20T13:53:21.673Z,7.07
2018-01-20T13:55:50.540Z,6.23
2018-01-20T13:58:20.408Z,7.80
2018-01-20T14:00:49.387Z,6.93
2018-01-20T14:03:18.240Z,4.97
2018-01-20T14:05:47.959Z,5.97
2018-01-20T14:08:16.534Z,5.43
2018-01-20T14:10:44.983Z,5.30
2018-01-20T14:13:21.301Z,6.27
2018-01-20T14:15:50.051Z,9.00
2018-01-20T14:18:19.127Z,7.37
2018-01-20T14:20:48.176Z,8.27
2018-01-20T14:23:20.170Z,8.65
2018-01-20T14:25:49.436Z,4.87
2018-01-20T14:29:08.951Z,9.82
2018-01-20T14:31:42.438Z,6.35
2018-01-20T14:34:10.762Z,43.55
2018-01-20T14:36:40.843Z,12.05
2018-01-20T14:39:09.869Z,7.10
2018-01-20T14:41:40.154Z,8.20
2018-01-20T14:44:09.325Z,6.43
2018-01-20T14:46:38.405Z,8.82
2018-01-20T14:49:07.593Z,7.03
2018-01-20T14:51:37.124Z,5.97
2018-01-20T14:54:09.713Z,6.47
2018-01-20T14:56:38.009Z,9.73
2018-01-20T14:59:07.023Z,7.18
2018-01-20T15:01:36.095Z,8.63
2018-01-20T15:04:04.320Z,9.05
2018-01-20T15:06:33.991Z,7.13
2018-01-20T15:09:29.746Z,5.67
2018-01-20T15:11:59.727Z,4.70
2018-01-20T15:14:35.633Z,4.82
2018-01-20T15:17:06.659Z,5.30
2018-01-20T15:19:35.221Z,5.77
2018-01-20T15:22:05.260Z,4.40
2018-01-20T15:24:34.810Z,5.22
2018-01-20T15:27:03.190Z,5.53
2018-01-20T15:29:32.312Z,5.28
2018-01-20T15:32:00.691Z,4.80
2018-01-20T15:34:28.806Z,4.87
2018-01-20T15:36:57.905Z,5.30
2018-01-20T15:39:27.081Z,6.27
2018-01-20T15:42:04.835Z,5.70
2018-01-20T15:44:34.073Z,3.93
2018-01-20T15:47:02.896Z,6.40
2018-01-20T15:49:31.542Z,4.00
2018-01-20T15:52:00.234Z,5.47
2018-01-20T15:54:28.277Z,8.18
2018-01-20T15:56:57.545Z,5.45
2018-01-20T15:59:28.842Z,6.25
2018-01-20T16:01:59.454Z,4.62
2018-01-20T16:05:13.608Z,5.28
2018-01-20T16:07:42.012Z,5.80
2018-01-20T16:10:22.686Z,5.90
2018-01-20T16:13:02.493Z,6.28
2018-01-20T16:15:35.203Z,7.03
2018-01-20T16:18:03.470Z,3.90
2018-01-20T16:20:33.775Z,4.18
2018-01-20T16:23:02.041Z,4.20
2018-01-20T16:25:31.090Z,6.20
2018-01-20T16:27:59.310Z,4.87
2018-01-20T16:30:28.290Z,5.90
2018-01-20T16:32:56.519Z,7.40
2018-01-20T16:35:25.053Z,5.85
2018-01-20T16:38:02.471Z,5.32
2018-01-20T16:40:45.777Z,4.70
2018-01-20T16:43:15.199Z,4.47
2018-01-20T16:45:53.034Z,4.03
2018-01-20T16:48:22.810Z,4.65
2018-01-20T16:50:50.954Z,8.45
2018-01-20T16:53:19.189Z,6.95
2018-01-20T16:56:00.810Z,5.87
2018-01-20T16:58:41.560Z,6.35
2018-01-20T17:01:09.856Z,5.62
2018-01-20T17:03:38.480Z,5.62
2018-01-20T17:06:06.841Z,3.78
2018-01-20T17:08:35.324Z,4.93
2018-01-20T17:11:15.478Z,4.47
2018-01-20T17:13:45.042Z,4.93
2018-01-20T17:16:14.268Z,4.75
2018-01-20T17:18:47.248Z,3.95
2018-01-20T17:21:19.277Z,4.10
2018-01-20T17:23:47.678Z,4.10
2018-01-20T17:26:15.748Z,5.65
2018-01-20T17:29:06.623Z,5.93
2018-01-20T17:31:36.547Z,5.00
2018-01-20T17:34:04.828Z,4.12
2018-01-20T17:36:41.534Z,5.20
2018-01-20T17:39:37.810Z,5.40
2018-01-20T17:42:14.808Z,5.20
2018-01-20T17:44:43.015Z,7.07
2018-01-20T17:47:37.587Z,5.37
2018-01-20T17:50:35.497Z,7.00
2018-01-20T17:53:05.852Z,8.63
2018-01-20T17:55:57.491Z,12.00
2018-01-20T17:58:25.694Z,7.18
2018-01-20T18:00:54.233Z,6.15
2018-01-20T18:03:25.412Z,7.00
2018-01-20T18:05:55.309Z,9.30
2018-01-20T18:08:30.532Z,6.25
2018-01-20T18:11:00.688Z,9.43
2018-01-20T18:13:29.774Z,7.70
2018-01-20T18:16:00.003Z,7.55
2018-01-20T18:18:34.721Z,8.40
2018-01-20T18:21:03.767Z,7.80
2018-01-20T18:23:32.416Z,10.57
2018-01-20T18:26:09.359Z,8.93
2018-01-20T18:28:39.224Z,8.25
2018-01-20T18:31:08.690Z,7.85
2018-01-20T18:34:02.384Z,8.50
2018-01-20T18:36:30.900Z,8.52
2018-01-20T18:39:15.948Z,7.33
2018-01-20T18:41:49.066Z,6.97
2018-01-20T18:44:17.879Z,5.82
2018-01-20T18:46:47.713Z,5.50
2018-01-20T18:49:17.906Z,5.18
2018-01-20T18:51:49.604Z,6.50
2018-01-20T18:54:20.732Z,8.60
2018-01-20T18:56:50.565Z,10.57
2018-01-20T18:59:20.681Z,10.82
2018-01-20T19:01:51.189Z,8.32
2018-01-20T19:04:21.679Z,8.85
2018-01-20T19:06:50.655Z,7.10
2018-01-20T19:09:30.114Z,11.65
2018-01-20T19:12:03.280Z,8.90
2018-01-20T19:14:34.267Z,17.48
2018-01-20T19:17:04.635Z,16.65
2018-01-20T19:19:34.471Z,7.80
2018-01-20T19:22:04.990Z,8.00
2018-01-20T19:24:51.563Z,7.50
2018-01-20T19:27:21.563Z,9.68
2018-01-20T19:29:52.422Z,10.13
2018-01-20T19:32:21.199Z,8.05
2018-01-20T19:34:56.100Z,12.23
2018-01-20T19:37:25.895Z,9.43
2018-01-20T19:39:56.273Z,9.43
2018-01-20T19:42:26.412Z,11.32
2018-01-20T19:44:55.982Z,11.63
2018-01-20T19:47:24.230Z,9.02
2018-01-20T19:49:52.665Z,9.43
2018-01-20T19:52:23.813Z,8.70
2018-01-20T19:54:54.540Z,12.23
2018-01-20T19:57:25.867Z,11.15
2018-01-20T19:59:55.757Z,10.25
2018-01-20T20:02:26.581Z,11.35
2018-01-20T20:04:55.647Z,7.37
2018-01-20T20:07:26.584Z,9.18
2018-01-20T20:10:07.215Z,7.75
2018-01-20T20:12:39.666Z,6.80
2018-01-20T20:15:19.107Z,6.37
2018-01-20T20:17:51.784Z,7.85
2018-01-20T20:20:29.588Z,7.28
2018-01-20T20:22:58.380Z,7.97
2018-01-20T20:25:30.577Z,5.57
2018-01-20T20:28:02.652Z,5.78
2018-01-20T20:30:33.796Z,4.57
2018-01-20T20:33:09.797Z,6.87
2018-01-20T20:40:58.554Z,5.65
2018-01-20T20:43:29.144Z,8.77
2018-01-20T20:46:03.409Z,9.30
2018-01-20T20:48:32.696Z,13.93
2018-01-20T20:51:07.084Z,12.68
2018-01-20T20:53:40.791Z,12.63
2018-01-20T20:56:21.284Z,15.52
2018-01-20T20:58:52.120Z,9.75
2018-01-20T21:01:31.678Z,14.45
2018-01-20T21:04:13.898Z,15.55
2018-01-20T21:06:42.916Z,12.95
2018-01-20T21:09:38.555Z,15.50
2018-01-20T21:12:32.901Z,21.60
2018-01-20T21:15:17.650Z,13.27
2018-01-20T21:17:47.301Z,12.77
2018-01-20T21:20:19.811Z,9.13
2018-01-20T21:22:50.663Z,12.32
2018-01-20T21:25:20.738Z,12.48
2018-01-20T21:27:52.449Z,8.73
2018-01-20T21:30:21.941Z,8.65
2018-01-20T21:32:55.111Z,6.25
2018-01-20T21:35:30.636Z,9.25
2018-01-20T21:38:05.846Z,10.32
2018-01-20T21:43:33.258Z,8.88
2018-01-20T21:46:08.255Z,11.57
2018-01-20T21:48:37.606Z,10.48
2018-01-20T21:51:08.384Z,10.15
2018-01-20T21:53:43.796Z,11.25
2018-01-20T21:56:19.776Z,14.87
2018-01-20T21:58:53.309Z,13.15
2018-01-20T22:01:26.534Z,11.95
2018-01-20T22:03:55.656Z,13.60
2018-01-20T22:06:25.639Z,15.93
2018-01-20T22:08:54.966Z,14.00
2018-01-20T22:11:23.910Z,13.95
2018-01-20T22:14:01.921Z,10.98
2018-01-20T22:16:31.461Z,10.68
2018-01-20T22:19:02.194Z,11.00
2018-01-20T22:21:33.694Z,10.10
2018-01-20T22:24:02.713Z,9.90
2018-01-20T22:26:31.617Z,12.25
2018-01-20T22:29:05.144Z,14.27
2018-01-20T22:31:33.085Z,13.35
2018-01-20T22:34:01.705Z,13.20
2018-01-20T22:36:30.703Z,12.70
2018-01-20T22:39:01.630Z,13.98
2018-01-20T22:41:31.658Z,14.63
2018-01-20T22:44:00.834Z,13.60
2018-01-20T22:46:31.150Z,13.60
2018-01-20T22:49:02.343Z,12.95
2018-01-20T22:51:31.764Z,13.98
2018-01-20T22:54:00.376Z,14.48
2018-01-20T22:56:29.290Z,15.50
2018-01-20T22:58:57.234Z,12.70
2018-01-20T23:01:26.121Z,12.37
2018-01-20T23:03:54.688Z,12.07
2018-01-20T23:06:23.090Z,12.32
2018-01-20T23:08:52.074Z,11.85
2018-01-20T23:11:29.132Z,13.82
2018-01-20T23:13:59.840Z,11.88
2018-01-20T23:16:28.861Z,10.73
2018-01-20T23:18:57.042Z,10.55
2018-01-20T23:21:26.446Z,12.13
2018-01-20T23:23:55.128Z,12.27
2018-01-20T23:26:23.987Z,11.85
2018-01-20T23:28:52.448Z,13.80
2018-01-20T23:31:20.763Z,11.07
2018-01-20T23:33:49.102Z,13.57
2018-01-20T23:36:17.006Z,11.88
2018-01-20T23:38:45.850Z,10.65
2018-01-20T23:41:15.190Z,10.40
2018-01-20T23:43:43.446Z,9.75
2018-01-20T23:46:15.174Z,10.45
2018-01-20T23:48:43.353Z,10.90
2018-01-20T23:51:12.187Z,11.57
2018-01-20T23:53:42.197Z,14.15
2018-01-20T23:56:10.985Z,10.57
2018-01-20T23:58:40.608Z,13.60
